Haleyville, AL

7:14 PM CDT on July 29, 2014 (GMT -0500)
Haleyville (K1M4) Elev 932 ft | 34.28 °N, 87.60 °W | Change Station

Current weather conditions updated 18 minutes ago

Clear
Clear
72 °F
Feels Like 72 °F
N
0
Wind Variable Wind from North

Tomorrow is forecast to be Warmer than today.

Today
High -- | Low -- °F
--% Chance of Precip.
Yesterday
High -- | Low -- °F
Precip. -- in
5:59 AM 7:54 PM
Waxing Crescent, 8% visible
Pressure 30.14 in
Visibility 10.0 miles
Clouds Clear
Dew Point 56 °F
Humidity 57%
Rainfall 0.00 in
Snow Depth Not available.
UV 1 out of 12
Pollen 4.10 out of 12
Ozone Good
PM2.5 Good
Flu Activity Not available.
METAR K1M4 292356Z AUTO 00000KT 10SM CLR 22/13 A3011 RMK AO2 58001 T02220133 10250 20222 SLP206

More Conditions Fewer Conditions

Pressure 30.14 in
Visibility 10.0 miles
Clouds Clear
Dew Point 56 °F
Humidity 57%
Rainfall 0.00 in
Snow Depth Not available.
UV 1 out of 12
Pollen 4.10 out of 12
Ozone Good
PM2.5 Good
Flu Activity Not available.
METAR K1M4 292356Z AUTO 00000KT 10SM CLR 22/13 A3011 RMK AO2 58001 T02220133 10250 20222 SLP206

More Conditions Fewer Conditions

10-Day Weather Forecast

Almanac

Astronomy

Jul. 29, 2014 Rise Set
Actual Time 5:59 AM CDT 7:54 PM CDT
Civil Twilight 5:31 AM CDT 8:21 PM CDT
Nautical Twilight 4:57 AM CDT 8:55 PM CDT
Astronomical Twilight 4:21 AM CDT 9:31 PM CDT
Moon 8:26 AM CDT (7/29) 9:16 PM CDT (7/29)
Length of Visible Light 14h 50m
Length of Day
13h 55m
Tomorrow will be 1m 31s shorter.
Waxing Crescent, 8% of the Moon is Illuminated
Today
Waxing Crescent
Aug 3
First Quarter
Aug 10
Full
Aug 17
Last Quarter
Aug 25
New

Today's Extremes

State Highs State Lows

Community

WunderPhotos

Upload Photos

1,738,917 photos uploaded!

Nearby

Air Quality

  Air Quality AQ Index Pollutant
Yesterday Good
PM10
Yesterday Good
OZONE
Current Good
OZONE
Current Good
PM2.5
Tuesday Good
OZONE
Tuesday Good
PM2.5
Wednesday Good
PM2.5
Wednesday Good
OZONE

Snow Depth

Station Depth Elevation
No new snow has been reported.

Earthquake Activity

City Distance Mag. Time & Date
No recent earthquake activity has been reported nearby.
Minimum magnitude displayed is 2.5.

Coastal Water Temperatures

Place Temperature
No Stations Reporting

Nearby Weather Stations

Station Location Temp. Heat Index Dew Point Humidity Wind Precip. Elev Updated Type
Boogertree Community, Double Springs, AL 72.0 °F 76 °F 59 °F 63% WNW  at  0.0 mph - / hr 784 ft 7:06 PM CDT Normal
Bailey Bend, Phil Campbell, AL 72.5 °F 76 °F 59 °F 62% NNW  at  0.0 mph 0.00 in / hr 944 ft 7:14 PM CDT Rapid Fire
APRSWXNET Mt. Hope AL , Mount Hope, AL 75 °F 78 °F 58 °F 56% NNW  at  4 mph 0.00 in / hr 649 ft 6:40 PM CDT MADIS
HCN RUSSELLVILLE AIRPORT 4 SSE AL , Russellville, AL 73 °F 71 °F - - North  at  - 0.00 in / hr 720 ft 6:40 PM CDT MADIS
RAWS BANKHEAD AL, Houston, AL 75 °F 78 °F 53 °F 46% SSW  at  1 mph 0.00 in / hr 804 ft 6:27 PM CDT MADIS

Show More Stations Show Fewer Stations